Time;durP1;ratioP1;P1;durP2;ratioP2;P2;SDS_P1;SDS_P2;PMS_P1;PMS_P2;Temp;Humidity;BMP_temperature;BMP_pressure;BME280_temperature;BME280_humidity;BME280_pressure;Samples;Min_cycle;Max_cycle;Signal;HPM_P1;HPM_P2
2022/01/24 00:00:36;;;;;;;2.93;2.20;;;4.80;99.90;;;;;;5073529;28;20285;-62
2022/01/24 00:03:03;;;;;;;3.27;2.63;;;4.80;99.90;;;;;;5073760;28;20233;-61
2022/01/24 00:05:29;;;;;;;4.13;2.70;;;4.80;99.90;;;;;;5073485;28;20229;-61
2022/01/24 00:07:56;;;;;;;5.57;2.80;;;4.80;99.90;;;;;;5073150;28;20208;-61
2022/01/24 00:10:26;;;;;;;4.43;2.53;;;4.80;99.90;;;;;;5072852;28;20281;-61
2022/01/24 00:13:24;;;;;;;4.20;2.87;;;4.80;99.90;;;;;;5073078;28;20216;-60
2022/01/24 00:15:54;;;;;;;5.80;3.13;;;4.80;99.90;;;;;;5072640;28;20228;-60
2022/01/24 00:26:40;;;;;;;5.50;2.97;;;4.80;99.90;;;;;;5072692;28;20212;-59
2022/01/24 00:26:47;;;;;;;3.03;2.07;;;4.80;99.90;;;;;;5041377;28;20207;-59
2022/01/24 00:29:15;;;;;;;4.30;2.70;;;4.90;99.90;;;;;;5072396;28;20651;-58
2022/01/24 00:31:43;;;;;;;4.13;2.97;;;5.00;99.90;;;;;;5072731;28;20228;-60
2022/01/24 00:34:10;;;;;;;2.87;2.20;;;5.10;99.90;;;;;;5072436;28;20228;-58
2022/01/24 00:36:38;;;;;;;3.77;2.80;;;5.10;99.90;;;;;;5072362;28;20707;-60
2022/01/24 00:39:06;;;;;;;3.60;2.60;;;5.00;99.90;;;;;;5072331;28;20577;-60
2022/01/24 00:41:44;;;;;;;3.30;2.40;;;5.10;99.90;;;;;;5072326;28;20228;-60
2022/01/24 00:44:34;;;;;;;3.00;2.07;;;5.00;99.90;;;;;;5072396;28;20636;-60
2022/01/24 00:47:09;;;;;;;2.67;2.00;;;5.00;99.90;;;;;;5072299;28;20261;-58
2022/01/24 00:49:50;;;;;;;2.10;1.90;;;5.00;99.90;;;;;;5072114;28;20211;-60
2022/01/24 00:55:03;;;;;;;2.37;1.70;;;5.00;99.90;;;;;;5072559;28;20361;-64
2022/01/24 00:57:30;;;;;;;2.30;1.73;;;5.00;99.90;;;;;;5072623;28;20209;-61
2022/01/24 00:59:57;;;;;;;2.40;2.03;;;5.00;99.90;;;;;;5072599;28;20208;-61
2022/01/24 01:02:25;;;;;;;1.80;1.60;;;4.90;99.90;;;;;;5072331;28;20259;-62
2022/01/24 01:05:05;;;;;;;2.27;1.90;;;4.90;99.90;;;;;;5073361;28;20200;-61
2022/01/24 01:07:41;;;;;;;1.97;1.70;;;4.90;99.90;;;;;;5071963;28;20216;-61
2022/01/24 01:18:24;;;;;;;2.10;1.87;;;5.00;99.90;;;;;;5071883;28;20700;-61
2022/01/24 01:21:12;;;;;;;2.40;1.97;;;5.00;99.90;;;;;;5071931;28;20224;-61
2022/01/24 01:23:44;;;;;;;2.40;1.83;;;5.00;99.90;;;;;;5071867;28;20215;-61
2022/01/24 01:26:19;;;;;;;3.10;1.73;;;4.90;99.90;;;;;;5071922;28;20299;-61
2022/01/24 01:28:49;;;;;;;2.77;1.97;;;5.00;99.90;;;;;;5071728;28;20207;-60
2022/01/24 01:31:25;;;;;;;2.57;1.90;;;5.10;99.90;;;;;;5071731;28;20235;-60
2022/01/24 01:34:03;;;;;;;2.93;1.90;;;5.10;99.90;;;;;;5071472;28;20223;-58
2022/01/24 01:36:57;;;;;;;3.80;1.90;;;5.10;99.90;;;;;;5071658;28;20211;-59
2022/01/24 01:39:46;;;;;;;2.50;2.10;;;5.10;99.90;;;;;;5071684;28;20303;-59
2022/01/24 01:53:30;;;;;;;2.50;2.30;;;5.20;99.90;;;;;;5071866;28;20207;-59
2022/01/24 01:55:57;;;;;;;3.57;2.20;;;5.00;99.90;;;;;;5071581;28;20234;-59
2022/01/24 01:58:26;;;;;;;3.00;2.33;;;4.90;99.90;;;;;;5072750;28;20251;-59
2022/01/24 02:00:57;;;;;;;2.20;2.00;;;4.80;99.90;;;;;;5071878;28;20243;-59
2022/01/24 02:03:25;;;;;;;2.27;1.90;;;4.90;99.90;;;;;;5071834;28;20215;-61
2022/01/24 02:05:53;;;;;;;2.17;1.73;;;4.90;99.90;;;;;;5071504;28;20203;-59
2022/01/24 02:08:23;;;;;;;2.20;2.00;;;5.00;99.90;;;;;;5071548;28;20211;-58
2022/01/24 02:10:49;;;;;;;2.50;1.80;;;5.00;99.90;;;;;;5071391;28;20233;-57
2022/01/24 02:13:16;;;;;;;2.07;1.80;;;5.00;99.90;;;;;;5071068;28;20216;-59
2022/01/24 02:15:51;;;;;;;2.33;2.00;;;5.10;99.90;;;;;;5071692;28;20585;-59
2022/01/24 02:18:28;;;;;;;3.07;2.40;;;5.00;99.90;;;;;;5071360;28;20674;-59
2022/01/24 02:21:12;;;;;;;4.27;2.40;;;4.90;99.90;;;;;;5073523;28;20227;-57
2022/01/24 02:23:44;;;;;;;4.73;2.30;;;5.00;99.90;;;;;;5074764;28;20208;-57
2022/01/24 02:26:19;;;;;;;2.57;2.10;;;5.00;99.90;;;;;;5075144;28;20212;-57
2022/01/24 02:28:55;;;;;;;2.67;2.13;;;5.10;99.90;;;;;;5074926;28;20208;-59
2022/01/24 02:34:06;;;;;;;3.17;2.17;;;5.00;99.90;;;;;;5074547;28;20223;-59
2022/01/24 02:36:32;;;;;;;2.23;2.03;;;5.00;99.90;;;;;;5074980;28;20638;-58
2022/01/24 02:39:13;;;;;;;2.07;1.70;;;4.90;99.90;;;;;;5074767;28;20209;-59
2022/01/24 02:50:01;;;;;;;2.03;1.80;;;4.70;99.90;;;;;;5074833;28;20207;-58
2022/01/24 02:52:28;;;;;;;2.27;1.63;;;4.80;99.90;;;;;;5074399;28;20239;-59
2022/01/24 02:54:56;;;;;;;2.27;1.80;;;4.80;99.90;;;;;;5074076;28;20221;-59
2022/01/24 02:57:23;;;;;;;2.27;1.73;;;4.90;99.90;;;;;;5074721;28;20620;-59
2022/01/24 02:59:49;;;;;;;2.87;2.07;;;4.90;99.90;;;;;;5075440;28;20215;-58
2022/01/24 03:02:16;;;;;;;3.00;2.30;;;4.90;99.90;;;;;;5076765;28;20273;-59
2022/01/24 03:04:43;;;;;;;1.80;1.63;;;5.00;99.90;;;;;;5075937;28;20201;-59
2022/01/24 03:07:09;;;;;;;3.03;2.40;;;4.90;99.90;;;;;;5074027;28;20253;-59
2022/01/24 03:09:36;;;;;;;2.40;2.00;;;4.70;99.90;;;;;;5074214;28;20215;-59
2022/01/24 03:12:08;;;;;;;2.17;1.77;;;4.70;99.90;;;;;;5073824;28;20228;-59
2022/01/24 03:14:36;;;;;;;2.43;2.10;;;4.70;99.90;;;;;;5074287;28;20236;-59
2022/01/24 03:17:05;;;;;;;4.60;2.00;;;4.60;99.90;;;;;;5074035;28;20231;-58
2022/01/24 03:19:32;;;;;;;2.93;2.10;;;4.60;99.90;;;;;;5074252;28;20208;-59
2022/01/24 03:21:59;;;;;;;3.13;1.80;;;4.60;99.90;;;;;;5074102;28;20232;-57
2022/01/24 03:24:26;;;;;;;2.10;1.90;;;4.70;99.90;;;;;;5074050;28;20208;-59
2022/01/24 03:26:52;;;;;;;2.00;1.70;;;4.60;99.90;;;;;;5073936;28;20240;-60
2022/01/24 03:29:21;;;;;;;2.77;2.00;;;4.70;99.90;;;;;;5073836;28;20208;-59
2022/01/24 03:31:47;;;;;;;2.60;2.23;;;4.60;99.90;;;;;;5073705;28;20239;-59
2022/01/24 03:34:15;;;;;;;3.53;2.47;;;4.60;99.90;;;;;;5073527;28;20228;-58
2022/01/24 03:36:43;;;;;;;2.70;2.13;;;4.50;99.90;;;;;;5073391;28;20266;-54
2022/01/24 03:39:11;;;;;;;2.07;1.67;;;4.50;99.90;;;;;;5073665;28;20239;-59
2022/01/24 03:41:39;;;;;;;3.20;2.00;;;4.60;99.90;;;;;;5073591;28;20263;-59
2022/01/24 03:44:07;;;;;;;2.23;2.00;;;4.70;99.90;;;;;;5073418;28;20689;-57
2022/01/24 03:46:59;;;;;;;2.43;2.10;;;4.70;99.90;;;;;;5073506;28;20208;-59
2022/01/24 03:52:10;;;;;;;1.93;1.73;;;4.80;99.90;;;;;;5073491;28;20225;-59
2022/01/24 03:54:37;;;;;;;3.17;1.80;;;4.80;99.90;;;;;;5073346;28;20204;-59
2022/01/24 03:57:05;;;;;;;1.90;1.70;;;4.80;99.90;;;;;;5073019;28;20682;-58
2022/01/24 03:59:32;;;;;;;2.00;1.80;;;4.80;99.90;;;;;;5073223;28;20205;-59
2022/01/24 04:02:00;;;;;;;2.10;1.90;;;4.70;99.90;;;;;;5073102;28;20240;-57
2022/01/24 04:04:27;;;;;;;2.53;2.10;;;4.70;99.90;;;;;;5073790;28;20251;-59
2022/01/24 04:06:54;;;;;;;3.13;1.83;;;4.70;99.90;;;;;;5073015;28;20201;-59
2022/01/24 04:09:21;;;;;;;2.33;1.63;;;4.70;99.90;;;;;;5073089;28;20204;-59
2022/01/24 04:11:52;;;;;;;2.00;1.40;;;4.70;99.90;;;;;;5072771;28;20231;-60
2022/01/24 04:14:36;;;;;;;2.87;1.93;;;4.70;99.90;;;;;;5073001;28;20212;-59
2022/01/24 04:17:21;;;;;;;2.43;2.20;;;4.80;99.90;;;;;;5072705;28;20205;-59
2022/01/24 04:22:38;;;;;;;3.63;2.17;;;4.80;99.90;;;;;;5072597;28;20975;-59
2022/01/24 04:25:13;;;;;;;2.40;1.80;;;4.90;99.90;;;;;;5072999;28;20232;-60
2022/01/24 04:27:40;;;;;;;4.10;2.00;;;5.00;99.90;;;;;;5073052;28;20250;-59
2022/01/24 04:30:08;;;;;;;2.57;1.73;;;5.00;99.90;;;;;;5073235;28;20211;-61
2022/01/24 04:32:36;;;;;;;2.20;1.80;;;5.00;99.90;;;;;;5072817;28;20208;-59
2022/01/24 04:35:03;;;;;;;1.90;1.53;;;5.00;99.90;;;;;;5072581;28;20620;-60
2022/01/24 04:37:30;;;;;;;1.80;1.50;;;5.00;99.90;;;;;;5072732;28;20265;-59
2022/01/24 04:39:56;;;;;;;2.73;1.90;;;5.00;99.90;;;;;;5072604;28;20212;-59
2022/01/24 04:42:32;;;;;;;2.90;2.20;;;5.00;99.90;;;;;;5072186;28;20311;-59
2022/01/24 04:45:21;;;;;;;3.63;2.40;;;5.10;99.90;;;;;;5072680;28;20581;-58
2022/01/24 04:50:26;;;;;;;2.07;1.87;;;5.10;99.90;;;;;;5072257;28;20204;-59
2022/01/24 04:50:45;;;;;;;2.40;2.17;;;5.00;99.90;;;;;;5071962;28;20231;-58
2022/01/24 04:53:29;;;;;;;3.43;1.83;;;5.00;99.90;;;;;;5072547;28;20204;-57
2022/01/24 04:55:55;;;;;;;2.20;1.80;;;4.80;99.90;;;;;;5071922;28;20234;-59
2022/01/24 04:58:22;;;;;;;2.60;2.20;;;4.70;99.90;;;;;;5072562;28;20586;-58
2022/01/24 05:00:49;;;;;;;3.73;2.40;;;4.60;99.90;;;;;;5072237;28;20228;-57
2022/01/24 05:03:17;;;;;;;2.80;2.20;;;4.60;99.90;;;;;;5073312;28;20216;-59
2022/01/24 05:05:44;;;;;;;2.73;1.90;;;4.50;99.90;;;;;;5073287;28;20253;-59
2022/01/24 05:08:13;;;;;;;2.47;2.10;;;4.50;99.90;;;;;;5071827;28;20219;-58
2022/01/24 05:10:52;;;;;;;2.83;1.90;;;4.50;99.90;;;;;;5072367;28;20280;-59
2022/01/24 05:23:23;;;;;;;3.70;2.20;;;4.70;99.90;;;;;;5071944;28;20269;-58
2022/01/24 05:24:22;;;;;;;2.97;2.30;;;4.60;99.90;;;;;;5071655;28;20208;-60
2022/01/24 05:26:49;;;;;;;2.40;2.00;;;4.70;99.90;;;;;;5072546;28;20557;-59
2022/01/24 05:29:15;;;;;;;3.00;2.40;;;4.70;99.90;;;;;;5072820;28;20280;-56
2022/01/24 05:31:42;;;;;;;5.80;2.40;;;4.70;99.90;;;;;;5071876;28;20229;-59
2022/01/24 05:34:10;;;;;;;3.30;2.40;;;4.70;99.90;;;;;;5071664;28;20602;-57
2022/01/24 05:36:36;;;;;;;2.43;2.17;;;4.60;99.90;;;;;;5071897;28;20647;-62
2022/01/24 05:39:04;;;;;;;2.07;1.87;;;4.70;99.90;;;;;;5060545;28;20833;-61
2022/01/24 05:41:30;;;;;;;2.33;2.13;;;4.60;99.90;;;;;;5069418;28;20228;-61
2022/01/24 05:43:57;;;;;;;2.87;2.33;;;4.70;99.90;;;;;;5071314;28;20207;-61
2022/01/24 05:46:24;;;;;;;3.10;2.80;;;4.70;99.90;;;;;;5071328;28;20272;-60
2022/01/24 05:48:52;;;;;;;2.97;2.60;;;4.70;99.90;;;;;;5070954;28;20259;-61
2022/01/24 05:51:20;;;;;;;4.30;2.50;;;4.70;99.90;;;;;;5070990;28;20223;-61
2022/01/24 05:53:47;;;;;;;2.60;2.40;;;4.70;99.90;;;;;;5071294;28;20209;-61
2022/01/24 05:56:14;;;;;;;2.73;2.23;;;4.60;99.90;;;;;;5073644;28;20225;-60
2022/01/24 05:58:40;;;;;;;3.00;2.50;;;4.60;99.90;;;;;;5075273;28;20687;-59
2022/01/24 06:01:07;;;;;;;2.43;2.17;;;4.60;99.90;;;;;;5075019;28;20274;-60
2022/01/24 06:03:34;;;;;;;4.47;2.70;;;4.60;99.90;;;;;;5075285;28;20205;-59
2022/01/24 06:06:01;;;;;;;2.90;2.50;;;4.70;99.90;;;;;;5075104;28;20685;-59
2022/01/24 06:08:29;;;;;;;3.87;2.53;;;4.60;99.90;;;;;;5074790;28;20207;-60
2022/01/24 06:10:58;;;;;;;3.30;2.70;;;4.60;99.90;;;;;;5074182;28;20236;-58
2022/01/24 06:13:25;;;;;;;5.67;3.03;;;4.50;99.90;;;;;;5074977;28;20205;-60
2022/01/24 06:15:51;;;;;;;4.13;2.67;;;4.50;99.90;;;;;;5075380;28;20225;-59
2022/01/24 06:18:20;;;;;;;3.70;2.67;;;4.50;99.90;;;;;;5075160;28;20627;-59
2022/01/24 06:20:47;;;;;;;4.50;3.00;;;4.50;99.90;;;;;;5074297;28;20225;-60
2022/01/24 06:23:14;;;;;;;3.13;2.70;;;4.50;99.90;;;;;;5082910;28;20205;-63
2022/01/24 06:25:43;;;;;;;3.50;2.87;;;4.60;99.90;;;;;;5091409;28;20234;-62
2022/01/24 06:28:09;;;;;;;3.83;3.30;;;4.60;99.90;;;;;;5070970;28;20262;-61
2022/01/24 06:30:36;;;;;;;3.30;2.70;;;4.60;99.90;;;;;;5073971;28;20227;-61
2022/01/24 06:33:03;;;;;;;3.97;3.20;;;4.60;99.90;;;;;;5074523;28;20704;-60
2022/01/24 06:35:30;;;;;;;3.50;2.90;;;4.70;99.90;;;;;;5054397;28;20205;-61
2022/01/24 06:37:56;;;;;;;6.27;3.37;;;4.70;99.90;;;;;;5054383;28;20212;-61
2022/01/24 06:40:23;;;;;;;3.67;3.03;;;4.60;99.90;;;;;;5054461;28;20213;-61
2022/01/24 06:42:51;;;;;;;3.80;2.93;;;4.50;99.90;;;;;;5054380;28;20633;-61
2022/01/24 06:45:18;;;;;;;4.00;3.57;;;4.50;99.90;;;;;;5054884;28;20626;-61
2022/01/24 06:47:45;;;;;;;6.50;4.20;;;4.40;99.90;;;;;;5054504;28;20619;-62
2022/01/24 06:50:12;;;;;;;3.37;2.77;;;4.40;99.90;;;;;;5054009;28;20296;-61
2022/01/24 06:52:39;;;;;;;6.00;3.23;;;4.40;99.90;;;;;;5054267;28;20942;-62
2022/01/24 06:55:06;;;;;;;4.70;3.77;;;4.50;99.90;;;;;;5054196;28;20208;-62
2022/01/24 06:57:33;;;;;;;4.00;3.13;;;4.50;99.90;;;;;;5054233;28;20766;-63
2022/01/24 07:00:01;;;;;;;4.50;3.37;;;4.60;99.90;;;;;;5066319;28;20227;-63
2022/01/24 07:02:28;;;;;;;4.50;3.50;;;4.50;99.90;;;;;;5074122;28;20232;-62
2022/01/24 07:04:55;;;;;;;4.97;4.23;;;4.50;99.90;;;;;;5073850;28;20211;-62
2022/01/24 07:07:21;;;;;;;5.20;4.17;;;4.40;99.90;;;;;;5073521;28;20624;-63
2022/01/24 07:09:48;;;;;;;4.60;3.90;;;4.50;99.90;;;;;;5074426;28;20205;-62
2022/01/24 07:12:15;;;;;;;5.03;4.07;;;4.40;99.90;;;;;;5073986;28;20228;-63
2022/01/24 07:14:42;;;;;;;4.20;3.77;;;4.50;99.90;;;;;;5074300;28;20240;-62
2022/01/24 07:17:17;;;;;;;4.27;3.80;;;4.50;99.90;;;;;;5073725;28;20219;-63
2022/01/24 07:19:44;;;;;;;4.37;3.97;;;4.50;99.90;;;;;;5074055;28;20208;-63
2022/01/24 07:22:10;;;;;;;4.90;4.10;;;4.60;99.90;;;;;;5073549;28;20885;-63
2022/01/24 07:24:38;;;;;;;4.67;4.13;;;4.50;99.90;;;;;;5073794;28;20211;-63
2022/01/24 07:27:05;;;;;;;6.37;4.17;;;4.60;99.90;;;;;;5073456;28;20199;-62
2022/01/24 07:29:32;;;;;;;4.37;3.93;;;4.60;99.90;;;;;;5073347;28;20243;-62
2022/01/24 07:31:59;;;;;;;7.63;4.90;;;4.50;99.90;;;;;;5073274;28;20231;-62
2022/01/24 07:34:27;;;;;;;5.53;4.53;;;4.30;99.90;;;;;;5073072;28;20239;-63
2022/01/24 07:36:55;;;;;;;5.57;3.87;;;4.20;99.90;;;;;;5073736;28;20235;-61
2022/01/24 07:39:22;;;;;;;5.53;4.47;;;4.20;99.90;;;;;;5073171;28;20208;-62
2022/01/24 07:41:50;;;;;;;4.57;3.83;;;4.30;99.90;;;;;;5073559;28;20278;-62
2022/01/24 07:44:20;;;;;;;4.97;4.27;;;4.40;99.90;;;;;;5073270;28;20271;-61
2022/01/24 07:46:47;;;;;;;4.67;4.20;;;4.40;99.90;;;;;;5074052;28;20203;-65
2022/01/24 07:49:14;;;;;;;8.13;4.90;;;4.50;1.00;;;;;;5073246;28;20221;-64
2022/01/24 07:51:43;;;;;;;5.27;4.40;;;4.50;1.00;;;;;;5072253;28;20290;-62
2022/01/24 07:54:10;;;;;;;4.70;4.07;;;4.60;99.90;;;;;;5072884;28;20208;-63
2022/01/24 07:56:37;;;;;;;6.13;4.57;;;4.60;99.90;;;;;;5072623;28;20833;-61
2022/01/24 07:59:04;;;;;;;5.00;4.47;;;4.60;99.90;;;;;;5072551;28;20675;-61
2022/01/24 08:01:30;;;;;;;5.40;4.47;;;4.70;99.90;;;;;;5072510;28;20696;-61
2022/01/24 08:03:57;;;;;;;5.10;4.30;;;4.70;99.90;;;;;;5072841;28;20209;-63
2022/01/24 08:06:24;;;;;;;5.50;4.20;;;4.80;99.90;;;;;;5072681;28;20212;-65
2022/01/24 08:08:52;;;;;;;5.23;4.50;;;4.70;99.90;;;;;;5073592;28;20209;-63
2022/01/24 08:11:19;;;;;;;5.57;4.57;;;4.70;99.90;;;;;;5074104;28;20232;-66
2022/01/24 08:13:46;;;;;;;4.67;4.17;;;4.70;99.90;;;;;;5072484;28;20258;-60
2022/01/24 08:16:13;;;;;;;5.80;4.60;;;4.80;99.90;;;;;;5073476;28;20229;-60
2022/01/24 08:18:40;;;;;;;6.50;4.23;;;4.70;99.90;;;;;;5072187;28;20291;-60
2022/01/24 08:21:07;;;;;;;6.90;4.87;;;4.70;99.90;;;;;;5072727;28;20221;-59
2022/01/24 08:23:33;;;;;;;5.00;4.00;;;4.60;99.90;;;;;;5072859;28;20204;-53
2022/01/24 08:26:01;;;;;;;8.93;4.83;;;4.70;99.90;;;;;;5073631;28;20212;-58
2022/01/24 08:28:28;;;;;;;4.90;4.30;;;4.60;99.90;;;;;;5073822;28;20590;-57
2022/01/24 08:30:55;;;;;;;5.17;4.50;;;4.60;99.90;;;;;;5072062;28;20221;-58
2022/01/24 08:33:22;;;;;;;5.30;4.30;;;4.70;99.90;;;;;;5073588;28;20223;-57
2022/01/24 08:35:51;;;;;;;5.57;4.40;;;4.70;99.90;;;;;;5074406;28;20205;-59
2022/01/24 08:38:18;;;;;;;5.10;4.30;;;4.70;99.90;;;;;;5078023;28;20216;-59
2022/01/24 08:40:47;;;;;;;7.53;4.80;;;4.70;99.90;;;;;;5076498;28;20224;-58
2022/01/24 08:43:23;;;;;;;5.27;4.40;;;4.70;99.90;;;;;;5072128;28;20578;-59
2022/01/24 08:45:53;;;;;;;6.03;5.00;;;4.70;99.90;;;;;;5072404;28;20254;-59
2022/01/24 08:48:22;;;;;;;5.73;4.67;;;4.70;99.90;;;;;;5071921;28;20205;-60
2022/01/24 08:50:54;;;;;;;6.03;4.60;;;4.70;99.90;;;;;;5072062;28;20255;-59
2022/01/24 08:53:23;;;;;;;5.63;4.43;;;4.80;99.90;;;;;;5071734;28;20687;-60
2022/01/24 08:55:50;;;;;;;6.03;4.47;;;4.50;99.90;;;;;;5072219;28;20215;-60
2022/01/24 08:58:18;;;;;;;6.00;4.20;;;4.40;99.90;;;;;;5072099;28;20618;-59
2022/01/24 09:00:47;;;;;;;5.80;4.60;;;4.40;99.90;;;;;;5071642;28;20229;-60
2022/01/24 09:03:14;;;;;;;7.23;4.80;;;4.50;99.90;;;;;;5072175;28;20238;-58
2022/01/24 09:05:42;;;;;;;6.33;5.03;;;4.50;99.90;;;;;;5072012;28;20210;-59
2022/01/24 09:08:10;;;;;;;7.23;5.30;;;4.50;99.90;;;;;;5072500;28;20213;-58
2022/01/24 09:10:39;;;;;;;6.40;5.40;;;4.50;99.90;;;;;;5071379;28;20217;-58
2022/01/24 09:13:06;;;;;;;6.70;4.90;;;4.60;99.90;;;;;;5071811;28;20219;-58
2022/01/24 09:15:34;;;;;;;6.23;4.70;;;4.60;99.90;;;;;;5071121;28;20238;-58
2022/01/24 09:18:01;;;;;;;6.00;5.10;;;4.60;99.90;;;;;;5071235;28;20645;-59
2022/01/24 09:20:28;;;;;;;6.33;4.63;;;4.60;99.90;;;;;;5070994;28;20242;-61
2022/01/24 09:22:55;;;;;;;8.27;5.20;;;4.50;99.90;;;;;;5071418;28;20230;-61
2022/01/24 09:25:23;;;;;;;5.97;4.63;;;4.40;99.90;;;;;;5071465;28;20208;-62
2022/01/24 09:27:51;;;;;;;5.57;4.73;;;4.50;99.90;;;;;;5071352;28;20207;-61
2022/01/24 09:30:22;;;;;;;6.07;5.33;;;4.40;99.90;;;;;;5070861;28;20214;-62
2022/01/24 09:32:51;;;;;;;5.80;4.93;;;4.50;99.90;;;;;;5070785;28;20217;-61
2022/01/24 09:35:18;;;;;;;6.17;5.30;;;4.50;99.90;;;;;;5071532;28;20232;-61
2022/01/24 09:37:47;;;;;;;6.83;5.10;;;4.60;99.90;;;;;;5071230;28;20231;-60
2022/01/24 09:40:15;;;;;;;6.40;4.90;;;4.60;99.90;;;;;;5070852;28;20300;-57
2022/01/24 09:42:43;;;;;;;6.67;5.07;;;4.50;99.90;;;;;;5071423;28;20605;-60
2022/01/24 09:45:11;;;;;;;7.77;5.27;;;4.50;99.90;;;;;;5071404;28;20207;-60
2022/01/24 09:47:38;;;;;;;7.83;5.27;;;4.50;99.90;;;;;;5051802;28;20620;-60
2022/01/24 09:50:08;;;;;;;6.87;5.20;;;4.60;99.90;;;;;;5059379;28;20212;-61
2022/01/24 09:52:35;;;;;;;7.37;5.10;;;4.70;99.90;;;;;;5062584;28;20697;-61
2022/01/24 09:55:02;;;;;;;24.63;12.40;;;4.60;99.90;;;;;;5055810;28;20214;-62
2022/01/24 09:57:29;;;;;;;8.50;6.00;;;4.60;99.90;;;;;;5050835;28;20235;-60
2022/01/24 09:59:56;;;;;;;7.00;5.20;;;4.60;99.90;;;;;;5050654;28;20214;-61
2022/01/24 10:02:24;;;;;;;8.57;5.90;;;4.70;99.90;;;;;;5050809;28;20236;-62
2022/01/24 10:04:51;;;;;;;7.87;5.83;;;4.80;99.90;;;;;;5051350;28;20206;-61
2022/01/24 10:07:19;;;;;;;6.67;5.30;;;4.80;99.90;;;;;;5050823;28;20236;-58
2022/01/24 10:09:48;;;;;;;6.07;5.00;;;4.80;99.90;;;;;;5050782;28;20205;-60
2022/01/24 10:12:34;;;;;;;7.80;5.73;;;4.80;99.90;;;;;;5050753;28;20606;-60
2022/01/24 10:17:50;;;;;;;9.47;5.33;;;5.00;99.90;;;;;;5068628;28;20313;-62
2022/01/24 10:20:21;;;;;;;6.27;5.00;;;5.00;99.90;;;;;;5070548;28;20208;-63
2022/01/24 10:23:15;;;;;;;5.70;5.00;;;5.00;99.90;;;;;;5071101;28;20196;-63
2022/01/24 10:25:54;;;;;;;6.77;5.23;;;5.10;99.90;;;;;;5056804;28;20586;-63
2022/01/24 10:28:27;;;;;;;6.73;5.07;;;5.00;99.90;;;;;;5070818;28;20292;-64
2022/01/24 10:31:09;;;;;;;6.63;5.43;;;5.10;99.90;;;;;;5070618;28;20648;-64
2022/01/24 10:33:52;;;;;;;7.93;5.53;;;5.00;99.90;;;;;;5070987;28;20220;-65
2022/01/24 10:36:35;;;;;;;7.33;5.27;;;5.00;99.90;;;;;;5070568;28;20815;-66
2022/01/24 10:39:22;;;;;;;7.17;5.57;;;5.00;99.90;;;;;;5070958;28;20196;-59
2022/01/24 10:42:27;;;;;;;9.27;5.50;;;4.90;99.90;;;;;;5072460;28;20236;-62
2022/01/24 10:44:56;;;;;;;7.67;5.80;;;5.00;99.90;;;;;;5074682;28;20254;-64
2022/01/24 10:47:27;;;;;;;8.33;5.20;;;4.90;99.90;;;;;;5073965;28;20613;-62
2022/01/24 10:49:55;;;;;;;6.43;5.03;;;5.00;99.90;;;;;;5073938;28;20591;-64
2022/01/24 10:52:24;;;;;;;7.57;5.53;;;4.90;99.90;;;;;;5074473;28;20586;-63
2022/01/24 10:54:55;;;;;;;7.77;6.13;;;4.80;99.90;;;;;;5073883;28;20208;-61
2022/01/24 10:57:24;;;;;;;7.93;5.30;;;4.80;99.90;;;;;;5074069;28;20220;-64
2022/01/24 10:59:52;;;;;;;6.67;4.93;;;4.80;99.90;;;;;;5073995;28;20208;-61
2022/01/24 11:02:19;;;;;;;8.23;5.40;;;4.70;99.90;;;;;;5073888;28;20224;-61
2022/01/24 11:04:45;;;;;;;7.77;5.10;;;4.90;99.90;;;;;;5073788;28;20281;-61
2022/01/24 11:07:12;;;;;;;8.33;5.53;;;4.90;99.90;;;;;;5073919;28;20208;-62
2022/01/24 11:09:41;;;;;;;7.77;5.27;;;5.00;99.90;;;;;;5073680;28;20621;-61
2022/01/24 11:12:11;;;;;;;7.97;5.13;;;5.00;99.90;;;;;;5073822;28;20274;-62
2022/01/24 11:14:39;;;;;;;10.00;5.30;;;5.00;99.90;;;;;;5073880;28;20303;-61
2022/01/24 11:17:08;;;;;;;9.40;5.83;;;5.10;99.90;;;;;;5073235;28;20251;-62
2022/01/24 11:19:40;;;;;;;23.67;12.47;;;5.20;99.90;;;;;;5073600;28;20201;-60
2022/01/24 11:22:18;;;;;;;9.70;6.67;;;5.10;99.90;;;;;;5073686;28;20320;-69
2022/01/24 11:24:52;;;;;;;7.37;5.27;;;5.10;99.90;;;;;;5073823;28;20208;-67
2022/01/24 11:27:21;;;;;;;6.77;5.20;;;5.20;61.00;;;;;;5073521;28;20287;-68
2022/01/24 11:29:51;;;;;;;5.77;4.97;;;5.30;29.50;;;;;;5073241;28;20212;-63
2022/01/24 11:32:25;;;;;;;7.90;5.53;;;5.40;99.90;;;;;;5073689;28;20235;-64
2022/01/24 11:34:54;;;;;;;6.97;5.20;;;5.40;99.90;;;;;;5073231;28;20243;-59
2022/01/24 11:37:35;;;;;;;10.07;5.80;;;5.40;99.90;;;;;;5073441;28;20232;-61
2022/01/24 11:40:02;;;;;;;7.67;5.70;;;5.30;99.90;;;;;;5072784;28;20671;-60
2022/01/24 11:42:32;;;;;;;7.00;5.63;;;5.30;99.90;;;;;;5073526;28;20227;-62
2022/01/24 11:45:04;;;;;;;12.90;5.80;;;5.40;99.90;;;;;;5073207;28;20204;-61
2022/01/24 11:47:32;;;;;;;7.47;5.17;;;5.40;99.90;;;;;;5073504;28;20544;-61
2022/01/24 11:49:59;;;;;;;7.07;5.30;;;5.40;99.90;;;;;;5072909;28;20725;-60
2022/01/24 11:52:31;;;;;;;8.20;5.70;;;4.80;76.90;;;;;;5073946;28;20228;-59
2022/01/24 11:55:13;;;;;;;9.37;5.30;;;4.70;99.90;;;;;;5074931;28;20227;-60
2022/01/24 11:57:44;;;;;;;6.73;5.60;;;4.90;99.90;;;;;;5074065;28;20618;-59
2022/01/24 12:00:17;;;;;;;6.17;5.43;;;5.00;99.90;;;;;;5073544;28;20193;-59
2022/01/24 12:02:46;;;;;;;8.50;6.20;;;4.90;99.90;;;;;;5075252;28;20217;-59
2022/01/24 12:05:15;;;;;;;6.80;5.50;;;5.10;99.90;;;;;;5081558;28;20270;-59
2022/01/24 12:07:44;;;;;;;9.83;6.20;;;5.10;99.90;;;;;;5078875;28;20230;-61
2022/01/24 12:10:41;;;;;;;6.40;5.50;;;5.10;99.90;;;;;;5072838;28;20228;-61
2022/01/24 12:13:14;;;;;;;8.87;5.37;;;5.00;99.90;;;;;;5072814;28;20211;-61
2022/01/24 12:15:56;;;;;;;7.63;5.70;;;4.90;99.90;;;;;;5073303;28;20192;-61
2022/01/24 12:18:50;;;;;;;8.80;5.30;;;5.10;99.90;;;;;;5073138;28;20286;-61
2022/01/24 12:21:21;;;;;;;8.97;5.80;;;5.30;99.90;;;;;;5073428;28;20316;-60
2022/01/24 12:23:50;;;;;;;6.43;5.27;;;5.30;99.90;;;;;;5073392;28;20204;-62
2022/01/24 12:26:27;;;;;;;6.70;5.20;;;5.20;99.90;;;;;;5072699;28;20205;-63
2022/01/24 12:29:02;;;;;;;5.40;4.90;;;5.30;99.90;;;;;;5072590;28;20205;-59
2022/01/24 12:31:31;;;;;;;5.37;4.87;;;5.20;96.80;;;;;;5072689;28;20311;-60
2022/01/24 12:34:02;;;;;;;8.30;5.53;;;5.40;99.90;;;;;;5072649;28;20209;-59
2022/01/24 12:37:10;;;;;;;9.47;6.10;;;5.40;99.90;;;;;;5072746;28;20295;-61
2022/01/24 12:40:07;;;;;;;10.53;6.60;;;5.30;99.90;;;;;;5072758;28;20266;-66
2022/01/24 12:42:47;;;;;;;6.23;5.07;;;5.30;99.90;;;;;;5067797;28;20248;-64
2022/01/24 12:48:07;;;;;;;9.00;6.07;;;5.20;81.40;;;;;;5073748;28;20211;-64
2022/01/24 12:50:35;;;;;;;6.47;5.03;;;5.20;99.30;;;;;;5072992;28;20325;-62
2022/01/24 12:53:01;;;;;;;8.67;5.90;;;5.20;99.90;;;;;;5072297;28;20239;-62
2022/01/24 12:55:28;;;;;;;6.43;5.50;;;5.30;99.90;;;;;;5072491;28;20732;-62
2022/01/24 12:57:55;;;;;;;7.03;5.97;;;5.20;99.90;;;;;;5072315;28;20229;-62
2022/01/24 13:00:23;;;;;;;7.93;5.60;;;5.00;99.90;;;;;;5071875;28;20238;-62
2022/01/24 13:02:49;;;;;;;8.00;5.80;;;5.10;99.90;;;;;;5072341;28;20589;-62
2022/01/24 13:05:20;;;;;;;7.80;6.20;;;5.20;99.90;;;;;;5071584;28;20208;-62
2022/01/24 13:07:51;;;;;;;7.40;5.80;;;5.20;99.90;;;;;;5072112;28;20207;-65
2022/01/24 13:10:21;;;;;;;6.80;5.77;;;5.30;99.90;;;;;;5071864;28;20212;-63
2022/01/24 13:12:57;;;;;;;6.57;5.87;;;5.30;99.90;;;;;;5072502;28;20247;-64
2022/01/24 13:20:24;;;;;;;7.13;5.77;;;5.40;99.90;;;;;;5072272;28;20239;-63
2022/01/24 13:21:10;;;;;;;7.53;5.30;;;5.00;74.70;;;;;;5072086;28;20227;-62
2022/01/24 13:23:41;;;;;;;9.93;5.93;;;5.00;99.90;;;;;;5079307;28;20272;-65
2022/01/24 13:26:09;;;;;;;10.23;6.37;;;5.10;99.90;;;;;;5084394;28;20662;-63
2022/01/24 13:28:36;;;;;;;6.27;5.30;;;5.10;99.90;;;;;;5078431;28;20659;-63
2022/01/24 13:31:05;;;;;;;8.27;5.67;;;5.20;99.90;;;;;;5070907;28;20221;-61
2022/01/24 13:33:33;;;;;;;9.30;5.33;;;5.30;99.90;;;;;;5070139;28;20294;-62
2022/01/24 13:36:04;;;;;;;10.33;6.03;;;5.30;99.90;;;;;;5070731;28;20338;-63
2022/01/24 13:38:33;;;;;;;6.77;5.73;;;5.30;99.90;;;;;;5071210;28;20612;-63
2022/01/24 13:41:05;;;;;;;8.10;6.03;;;5.30;99.90;;;;;;5071027;28;20239;-63
2022/01/24 13:43:37;;;;;;;11.17;6.00;;;5.30;99.90;;;;;;5071186;28;20667;-65
2022/01/24 13:46:07;;;;;;;6.93;5.83;;;5.00;99.90;;;;;;5070985;28;20215;-63
2022/01/24 13:48:43;;;;;;;10.97;7.30;;;4.90;99.90;;;;;;5071666;28;20262;-59
2022/01/24 13:51:12;;;;;;;8.20;6.37;;;4.90;99.90;;;;;;5070489;28;20223;-59
2022/01/24 13:53:40;;;;;;;7.63;6.17;;;4.80;99.90;;;;;;5071397;28;20212;-59
2022/01/24 13:56:26;;;;;;;10.63;6.80;;;5.00;99.90;;;;;;5070690;28;20675;-62
2022/01/24 13:59:13;;;;;;;6.77;5.23;;;5.10;99.90;;;;;;5071181;28;20238;-62
2022/01/24 14:01:52;;;;;;;9.90;5.97;;;5.10;99.90;;;;;;5070702;28;20224;-61
2022/01/24 14:04:27;;;;;;;7.70;6.07;;;5.20;99.90;;;;;;5071345;28;20211;-61
2022/01/24 14:06:57;;;;;;;8.63;6.33;;;5.20;99.90;;;;;;5071048;28;20760;-61
2022/01/24 14:09:32;;;;;;;7.90;6.63;;;5.20;99.90;;;;;;5071008;28;20234;-60
2022/01/24 14:11:59;;;;;;;7.37;6.03;;;5.20;99.90;;;;;;5070853;28;20227;-61
2022/01/24 14:14:37;;;;;;;6.70;5.57;;;5.10;99.90;;;;;;5071040;28;20212;-61
2022/01/24 14:17:18;;;;;;;13.80;6.97;;;5.10;99.90;;;;;;5073521;28;20810;-61